sensor_id;sensor_type;location;lat;lon;timestamp;temperature;humidity
15713;DHT22;7957;51.608;6.916;2022-10-16T00:01:37;12.60;99.90
15713;DHT22;7957;51.608;6.916;2022-10-16T00:04:04;12.60;99.90
15713;DHT22;7957;51.608;6.916;2022-10-16T00:06:32;12.60;99.90
15713;DHT22;7957;51.608;6.916;2022-10-16T00:08:59;12.60;99.90
15713;DHT22;7957;51.608;6.916;2022-10-16T00:11:33;12.60;99.90
15713;DHT22;7957;51.608;6.916;2022-10-16T00:14:03;12.60;99.90
15713;DHT22;7957;51.608;6.916;2022-10-16T00:16:30;12.60;99.90
15713;DHT22;7957;51.608;6.916;2022-10-16T00:18:57;12.60;99.90
15713;DHT22;7957;51.608;6.916;2022-10-16T00:21:26;12.60;99.90
15713;DHT22;7957;51.608;6.916;2022-10-16T00:23:55;12.50;99.90
15713;DHT22;7957;51.608;6.916;2022-10-16T00:26:22;12.60;99.90
15713;DHT22;7957;51.608;6.916;2022-10-16T00:28:51;12.60;99.90
15713;DHT22;7957;51.608;6.916;2022-10-16T00:31:20;12.50;99.90
15713;DHT22;7957;51.608;6.916;2022-10-16T00:33:47;12.50;99.90
15713;DHT22;7957;51.608;6.916;2022-10-16T00:36:16;12.50;99.90
15713;DHT22;7957;51.608;6.916;2022-10-16T00:38:44;12.50;99.90
15713;DHT22;7957;51.608;6.916;2022-10-16T00:41:13;12.50;99.90
15713;DHT22;7957;51.608;6.916;2022-10-16T00:43:41;12.50;99.90
15713;DHT22;7957;51.608;6.916;2022-10-16T00:46:15;12.60;99.90
15713;DHT22;7957;51.608;6.916;2022-10-16T00:48:47;12.50;99.90
15713;DHT22;7957;51.608;6.916;2022-10-16T00:51:14;12.50;99.90
15713;DHT22;7957;51.608;6.916;2022-10-16T00:53:41;12.50;99.90
15713;DHT22;7957;51.608;6.916;2022-10-16T00:56:08;12.50;99.90
15713;DHT22;7957;51.608;6.916;2022-10-16T00:58:35;12.60;99.90
15713;DHT22;7957;51.608;6.916;2022-10-16T01:01:02;12.50;99.90
15713;DHT22;7957;51.608;6.916;2022-10-16T01:03:32;12.50;99.90
15713;DHT22;7957;51.608;6.916;2022-10-16T01:06:16;12.50;99.90
15713;DHT22;7957;51.608;6.916;2022-10-16T01:08:53;12.50;99.90
15713;DHT22;7957;51.608;6.916;2022-10-16T01:11:31;12.50;99.90
15713;DHT22;7957;51.608;6.916;2022-10-16T01:14:03;12.40;99.90
15713;DHT22;7957;51.608;6.916;2022-10-16T01:16:35;12.40;99.90
15713;DHT22;7957;51.608;6.916;2022-10-16T01:19:10;12.40;99.90
15713;DHT22;7957;51.608;6.916;2022-10-16T01:21:42;12.40;99.90
15713;DHT22;7957;51.608;6.916;2022-10-16T01:24:17;12.40;99.90
15713;DHT22;7957;51.608;6.916;2022-10-16T01:27:06;12.30;99.90
15713;DHT22;7957;51.608;6.916;2022-10-16T01:29:37;12.30;99.90
15713;DHT22;7957;51.608;6.916;2022-10-16T01:32:11;12.30;99.90
15713;DHT22;7957;51.608;6.916;2022-10-16T01:34:47;12.30;99.90
15713;DHT22;7957;51.608;6.916;2022-10-16T01:37:17;12.30;99.90
15713;DHT22;7957;51.608;6.916;2022-10-16T01:39:47;12.30;99.90
15713;DHT22;7957;51.608;6.916;2022-10-16T01:42:20;12.30;99.90
15713;DHT22;7957;51.608;6.916;2022-10-16T01:44:50;12.30;99.90
15713;DHT22;7957;51.608;6.916;2022-10-16T01:47:19;12.20;99.90
15713;DHT22;7957;51.608;6.916;2022-10-16T01:49:46;12.30;99.90
15713;DHT22;7957;51.608;6.916;2022-10-16T01:52:19;12.20;99.90
15713;DHT22;7957;51.608;6.916;2022-10-16T01:54:50;12.20;99.90
15713;DHT22;7957;51.608;6.916;2022-10-16T01:57:21;12.20;99.90
15713;DHT22;7957;51.608;6.916;2022-10-16T01:59:52;12.20;99.90
15713;DHT22;7957;51.608;6.916;2022-10-16T02:02:23;12.20;99.90
15713;DHT22;7957;51.608;6.916;2022-10-16T02:04:57;12.20;99.90
15713;DHT22;7957;51.608;6.916;2022-10-16T02:07:30;12.30;99.90
15713;DHT22;7957;51.608;6.916;2022-10-16T02:09:57;12.30;99.90
15713;DHT22;7957;51.608;6.916;2022-10-16T02:12:29;12.20;99.90
15713;DHT22;7957;51.608;6.916;2022-10-16T02:14:57;12.20;99.90
15713;DHT22;7957;51.608;6.916;2022-10-16T02:17:26;12.20;99.90
15713;DHT22;7957;51.608;6.916;2022-10-16T02:19:55;12.30;99.90
15713;DHT22;7957;51.608;6.916;2022-10-16T02:22:27;12.30;99.90
15713;DHT22;7957;51.608;6.916;2022-10-16T02:24:56;12.30;99.90
15713;DHT22;7957;51.608;6.916;2022-10-16T02:27:29;12.30;99.90
15713;DHT22;7957;51.608;6.916;2022-10-16T02:30:02;12.30;99.90
15713;DHT22;7957;51.608;6.916;2022-10-16T02:32:34;12.40;99.90
15713;DHT22;7957;51.608;6.916;2022-10-16T02:35:04;12.40;99.90
15713;DHT22;7957;51.608;6.916;2022-10-16T02:37:32;12.40;99.90
15713;DHT22;7957;51.608;6.916;2022-10-16T02:39:59;12.40;99.90
15713;DHT22;7957;51.608;6.916;2022-10-16T02:42:37;12.40;99.90
15713;DHT22;7957;51.608;6.916;2022-10-16T02:45:05;12.40;99.90
15713;DHT22;7957;51.608;6.916;2022-10-16T02:47:33;12.40;99.90
15713;DHT22;7957;51.608;6.916;2022-10-16T02:49:59;12.50;99.90
15713;DHT22;7957;51.608;6.916;2022-10-16T02:52:26;12.50;99.90
15713;DHT22;7957;51.608;6.916;2022-10-16T02:54:53;12.40;99.90
15713;DHT22;7957;51.608;6.916;2022-10-16T02:57:20;12.40;99.90
15713;DHT22;7957;51.608;6.916;2022-10-16T02:59:48;12.40;99.90
15713;DHT22;7957;51.608;6.916;2022-10-16T03:02:15;12.40;99.90
15713;DHT22;7957;51.608;6.916;2022-10-16T03:04:42;12.40;99.90
15713;DHT22;7957;51.608;6.916;2022-10-16T03:07:09;12.30;99.90
15713;DHT22;7957;51.608;6.916;2022-10-16T03:09:36;12.40;99.90
15713;DHT22;7957;51.608;6.916;2022-10-16T03:12:03;12.40;99.90
15713;DHT22;7957;51.608;6.916;2022-10-16T03:14:30;12.40;99.90
15713;DHT22;7957;51.608;6.916;2022-10-16T03:16:58;12.40;99.90
15713;DHT22;7957;51.608;6.916;2022-10-16T03:19:25;12.40;99.90
15713;DHT22;7957;51.608;6.916;2022-10-16T03:21:54;12.40;99.90
15713;DHT22;7957;51.608;6.916;2022-10-16T03:24:20;12.40;99.90
15713;DHT22;7957;51.608;6.916;2022-10-16T03:26:47;12.30;99.90
15713;DHT22;7957;51.608;6.916;2022-10-16T03:29:14;12.30;99.90
15713;DHT22;7957;51.608;6.916;2022-10-16T03:31:41;12.30;99.90
15713;DHT22;7957;51.608;6.916;2022-10-16T03:34:09;12.40;99.90
15713;DHT22;7957;51.608;6.916;2022-10-16T03:36:36;12.40;99.90
15713;DHT22;7957;51.608;6.916;2022-10-16T03:39:03;12.30;99.90
15713;DHT22;7957;51.608;6.916;2022-10-16T03:41:30;12.30;99.90
15713;DHT22;7957;51.608;6.916;2022-10-16T03:43:57;12.30;99.90
15713;DHT22;7957;51.608;6.916;2022-10-16T03:46:24;12.30;99.90
15713;DHT22;7957;51.608;6.916;2022-10-16T03:48:51;12.30;99.90
15713;DHT22;7957;51.608;6.916;2022-10-16T03:51:19;12.30;99.90
15713;DHT22;7957;51.608;6.916;2022-10-16T03:53:46;12.30;99.90
15713;DHT22;7957;51.608;6.916;2022-10-16T03:56:13;12.20;99.90
15713;DHT22;7957;51.608;6.916;2022-10-16T03:58:40;12.20;99.90
15713;DHT22;7957;51.608;6.916;2022-10-16T04:01:07;12.20;99.90
15713;DHT22;7957;51.608;6.916;2022-10-16T04:03:34;12.20;99.90
15713;DHT22;7957;51.608;6.916;2022-10-16T04:06:01;12.20;99.90
15713;DHT22;7957;51.608;6.916;2022-10-16T04:08:29;12.20;99.90
15713;DHT22;7957;51.608;6.916;2022-10-16T04:10:59;12.10;99.90
15713;DHT22;7957;51.608;6.916;2022-10-16T04:13:26;12.10;99.90
15713;DHT22;7957;51.608;6.916;2022-10-16T04:15:53;12.10;99.90
15713;DHT22;7957;51.608;6.916;2022-10-16T04:18:20;12.10;99.90
15713;DHT22;7957;51.608;6.916;2022-10-16T04:20:47;12.10;99.90
15713;DHT22;7957;51.608;6.916;2022-10-16T04:23:14;12.10;99.90
15713;DHT22;7957;51.608;6.916;2022-10-16T04:25:42;12.10;99.90
15713;DHT22;7957;51.608;6.916;2022-10-16T04:28:09;12.10;99.90
15713;DHT22;7957;51.608;6.916;2022-10-16T04:30:38;12.10;99.90
15713;DHT22;7957;51.608;6.916;2022-10-16T04:33:05;12.10;99.90
15713;DHT22;7957;51.608;6.916;2022-10-16T04:35:32;12.10;99.90
15713;DHT22;7957;51.608;6.916;2022-10-16T04:37:59;12.10;99.90
15713;DHT22;7957;51.608;6.916;2022-10-16T04:40:26;12.10;99.90
15713;DHT22;7957;51.608;6.916;2022-10-16T04:42:54;12.10;99.90
15713;DHT22;7957;51.608;6.916;2022-10-16T04:45:21;12.00;99.90
15713;DHT22;7957;51.608;6.916;2022-10-16T04:47:48;12.10;99.90
15713;DHT22;7957;51.608;6.916;2022-10-16T04:50:15;12.10;99.90
15713;DHT22;7957;51.608;6.916;2022-10-16T04:52:42;12.10;99.90
15713;DHT22;7957;51.608;6.916;2022-10-16T04:55:09;12.10;99.90
15713;DHT22;7957;51.608;6.916;2022-10-16T04:57:36;12.10;99.90
15713;DHT22;7957;51.608;6.916;2022-10-16T05:00:05;12.10;99.90
15713;DHT22;7957;51.608;6.916;2022-10-16T05:02:33;12.10;99.90
15713;DHT22;7957;51.608;6.916;2022-10-16T05:05:00;12.10;99.90
15713;DHT22;7957;51.608;6.916;2022-10-16T05:07:27;12.10;99.90
15713;DHT22;7957;51.608;6.916;2022-10-16T05:09:54;12.10;99.90
15713;DHT22;7957;51.608;6.916;2022-10-16T05:12:21;12.10;99.90
15713;DHT22;7957;51.608;6.916;2022-10-16T05:14:48;12.10;99.90
15713;DHT22;7957;51.608;6.916;2022-10-16T05:17:16;12.10;99.90
15713;DHT22;7957;51.608;6.916;2022-10-16T05:19:43;12.10;99.90
15713;DHT22;7957;51.608;6.916;2022-10-16T05:22:10;12.10;99.90
15713;DHT22;7957;51.608;6.916;2022-10-16T05:24:36;12.10;99.90
15713;DHT22;7957;51.608;6.916;2022-10-16T05:27:03;12.10;99.90
15713;DHT22;7957;51.608;6.916;2022-10-16T05:29:30;12.10;99.90
15713;DHT22;7957;51.608;6.916;2022-10-16T05:31:57;12.10;99.90
15713;DHT22;7957;51.608;6.916;2022-10-16T05:34:25;12.10;99.90
15713;DHT22;7957;51.608;6.916;2022-10-16T05:36:52;12.10;99.90
15713;DHT22;7957;51.608;6.916;2022-10-16T05:39:19;12.00;99.90
15713;DHT22;7957;51.608;6.916;2022-10-16T05:41:46;12.10;99.90
15713;DHT22;7957;51.608;6.916;2022-10-16T05:44:13;12.00;99.90
15713;DHT22;7957;51.608;6.916;2022-10-16T05:46:40;12.10;99.90
15713;DHT22;7957;51.608;6.916;2022-10-16T05:49:07;12.00;99.90
15713;DHT22;7957;51.608;6.916;2022-10-16T05:51:35;12.10;99.90
15713;DHT22;7957;51.608;6.916;2022-10-16T05:54:02;12.10;99.90
15713;DHT22;7957;51.608;6.916;2022-10-16T05:56:29;12.10;99.90
15713;DHT22;7957;51.608;6.916;2022-10-16T05:58:56;12.10;99.90
15713;DHT22;7957;51.608;6.916;2022-10-16T06:01:23;12.00;99.90
15713;DHT22;7957;51.608;6.916;2022-10-16T06:03:50;12.00;99.90
15713;DHT22;7957;51.608;6.916;2022-10-16T06:06:19;12.00;99.90
15713;DHT22;7957;51.608;6.916;2022-10-16T06:08:49;12.00;99.90
15713;DHT22;7957;51.608;6.916;2022-10-16T06:11:17;12.00;99.90
15713;DHT22;7957;51.608;6.916;2022-10-16T06:13:44;12.00;99.90
15713;DHT22;7957;51.608;6.916;2022-10-16T06:16:12;12.00;99.90
15713;DHT22;7957;51.608;6.916;2022-10-16T06:18:39;12.00;99.90
15713;DHT22;7957;51.608;6.916;2022-10-16T06:21:11;12.00;99.90
15713;DHT22;7957;51.608;6.916;2022-10-16T06:23:38;12.00;99.90
15713;DHT22;7957;51.608;6.916;2022-10-16T06:26:08;12.00;99.90
15713;DHT22;7957;51.608;6.916;2022-10-16T06:28:35;12.00;99.90
15713;DHT22;7957;51.608;6.916;2022-10-16T06:31:03;12.00;99.90
15713;DHT22;7957;51.608;6.916;2022-10-16T06:33:31;12.00;99.90
15713;DHT22;7957;51.608;6.916;2022-10-16T06:36:02;12.10;99.90
15713;DHT22;7957;51.608;6.916;2022-10-16T06:38:29;12.10;99.90
15713;DHT22;7957;51.608;6.916;2022-10-16T06:40:57;12.10;99.90
15713;DHT22;7957;51.608;6.916;2022-10-16T06:43:25;12.10;99.90
15713;DHT22;7957;51.608;6.916;2022-10-16T06:45:52;12.10;99.90
15713;DHT22;7957;51.608;6.916;2022-10-16T06:48:20;12.10;99.90
15713;DHT22;7957;51.608;6.916;2022-10-16T06:50:55;12.10;99.90
15713;DHT22;7957;51.608;6.916;2022-10-16T06:53:23;12.10;99.90
15713;DHT22;7957;51.608;6.916;2022-10-16T06:55:50;12.20;99.90
15713;DHT22;7957;51.608;6.916;2022-10-16T06:58:17;12.20;99.90
15713;DHT22;7957;51.608;6.916;2022-10-16T07:00:46;12.20;99.90
15713;DHT22;7957;51.608;6.916;2022-10-16T07:03:13;12.10;99.90
15713;DHT22;7957;51.608;6.916;2022-10-16T07:05:41;12.10;99.90
15713;DHT22;7957;51.608;6.916;2022-10-16T07:08:09;12.10;99.90
15713;DHT22;7957;51.608;6.916;2022-10-16T07:10:36;12.20;99.90
15713;DHT22;7957;51.608;6.916;2022-10-16T07:13:03;12.10;99.90
15713;DHT22;7957;51.608;6.916;2022-10-16T07:15:30;12.10;99.90
15713;DHT22;7957;51.608;6.916;2022-10-16T07:17:58;12.10;99.90
15713;DHT22;7957;51.608;6.916;2022-10-16T07:20:25;12.10;99.90
15713;DHT22;7957;51.608;6.916;2022-10-16T07:22:52;12.10;99.90
15713;DHT22;7957;51.608;6.916;2022-10-16T07:25:19;12.10;99.90
15713;DHT22;7957;51.608;6.916;2022-10-16T07:27:46;12.10;99.90
15713;DHT22;7957;51.608;6.916;2022-10-16T07:30:13;12.10;99.90
15713;DHT22;7957;51.608;6.916;2022-10-16T07:32:40;12.10;99.90
15713;DHT22;7957;51.608;6.916;2022-10-16T07:35:08;12.10;99.90
15713;DHT22;7957;51.608;6.916;2022-10-16T07:37:35;12.10;99.90
15713;DHT22;7957;51.608;6.916;2022-10-16T07:40:02;12.10;99.90
15713;DHT22;7957;51.608;6.916;2022-10-16T07:42:29;12.10;99.90
15713;DHT22;7957;51.608;6.916;2022-10-16T07:44:56;12.20;99.90
15713;DHT22;7957;51.608;6.916;2022-10-16T07:47:23;12.20;99.90
15713;DHT22;7957;51.608;6.916;2022-10-16T07:49:50;12.20;99.90
15713;DHT22;7957;51.608;6.916;2022-10-16T07:52:19;12.20;99.90
15713;DHT22;7957;51.608;6.916;2022-10-16T07:54:46;12.20;99.90
15713;DHT22;7957;51.608;6.916;2022-10-16T07:57:12;12.20;99.90
15713;DHT22;7957;51.608;6.916;2022-10-16T07:59:44;12.20;99.90
15713;DHT22;7957;51.608;6.916;2022-10-16T08:02:11;12.20;99.90
15713;DHT22;7957;51.608;6.916;2022-10-16T08:04:38;12.30;99.90
15713;DHT22;7957;51.608;6.916;2022-10-16T08:07:06;12.30;99.90
15713;DHT22;7957;51.608;6.916;2022-10-16T08:09:35;12.30;99.90
15713;DHT22;7957;51.608;6.916;2022-10-16T08:12:02;12.30;99.90
15713;DHT22;7957;51.608;6.916;2022-10-16T08:14:29;12.30;99.90
15713;DHT22;7957;51.608;6.916;2022-10-16T08:16:56;12.40;99.90
15713;DHT22;7957;51.608;6.916;2022-10-16T08:19:23;12.40;99.90
15713;DHT22;7957;51.608;6.916;2022-10-16T08:21:50;12.40;99.90
15713;DHT22;7957;51.608;6.916;2022-10-16T08:24:17;12.50;99.90
15713;DHT22;7957;51.608;6.916;2022-10-16T08:26:45;12.50;99.90
15713;DHT22;7957;51.608;6.916;2022-10-16T08:29:13;12.50;99.90
15713;DHT22;7957;51.608;6.916;2022-10-16T08:31:40;12.60;99.90
15713;DHT22;7957;51.608;6.916;2022-10-16T08:34:07;12.70;99.90
15713;DHT22;7957;51.608;6.916;2022-10-16T08:36:34;12.80;99.90
15713;DHT22;7957;51.608;6.916;2022-10-16T08:39:01;12.80;99.90
15713;DHT22;7957;51.608;6.916;2022-10-16T08:41:46;13.00;99.90
15713;DHT22;7957;51.608;6.916;2022-10-16T08:44:35;13.10;99.90
15713;DHT22;7957;51.608;6.916;2022-10-16T08:47:11;13.30;99.90
15713;DHT22;7957;51.608;6.916;2022-10-16T08:49:42;13.40;99.90
15713;DHT22;7957;51.608;6.916;2022-10-16T08:52:11;13.40;99.90
15713;DHT22;7957;51.608;6.916;2022-10-16T08:54:42;13.50;99.90
15713;DHT22;7957;51.608;6.916;2022-10-16T08:57:12;13.50;99.90
15713;DHT22;7957;51.608;6.916;2022-10-16T08:59:41;13.60;99.90
15713;DHT22;7957;51.608;6.916;2022-10-16T09:02:23;13.50;99.90
15713;DHT22;7957;51.608;6.916;2022-10-16T09:05:11;13.60;99.90
15713;DHT22;7957;51.608;6.916;2022-10-16T09:08:06;13.50;99.90
15713;DHT22;7957;51.608;6.916;2022-10-16T09:10:43;13.50;99.90
15713;DHT22;7957;51.608;6.916;2022-10-16T09:13:19;13.50;99.90
15713;DHT22;7957;51.608;6.916;2022-10-16T09:15:55;13.60;99.90
15713;DHT22;7957;51.608;6.916;2022-10-16T09:18:29;13.60;99.90
15713;DHT22;7957;51.608;6.916;2022-10-16T09:21:07;13.60;99.90
15713;DHT22;7957;51.608;6.916;2022-10-16T09:23:37;13.60;99.90
15713;DHT22;7957;51.608;6.916;2022-10-16T09:26:05;13.70;99.90
15713;DHT22;7957;51.608;6.916;2022-10-16T09:28:32;13.70;99.90
15713;DHT22;7957;51.608;6.916;2022-10-16T09:31:01;13.70;99.90
15713;DHT22;7957;51.608;6.916;2022-10-16T09:33:30;13.80;99.90
15713;DHT22;7957;51.608;6.916;2022-10-16T09:35:59;13.80;99.90
15713;DHT22;7957;51.608;6.916;2022-10-16T09:38:30;13.80;99.90
15713;DHT22;7957;51.608;6.916;2022-10-16T09:40:59;13.80;99.90
15713;DHT22;7957;51.608;6.916;2022-10-16T09:43:28;13.80;99.90
15713;DHT22;7957;51.608;6.916;2022-10-16T09:46:00;13.80;99.90
15713;DHT22;7957;51.608;6.916;2022-10-16T09:48:31;13.80;99.90
15713;DHT22;7957;51.608;6.916;2022-10-16T09:51:01;13.80;99.90
15713;DHT22;7957;51.608;6.916;2022-10-16T09:53:43;13.80;99.90
15713;DHT22;7957;51.608;6.916;2022-10-16T09:56:11;13.80;99.90
15713;DHT22;7957;51.608;6.916;2022-10-16T09:58:43;13.80;99.90
15713;DHT22;7957;51.608;6.916;2022-10-16T10:01:15;13.90;99.90
15713;DHT22;7957;51.608;6.916;2022-10-16T10:03:43;13.80;99.90
15713;DHT22;7957;51.608;6.916;2022-10-16T10:06:20;13.90;99.90
15713;DHT22;7957;51.608;6.916;2022-10-16T10:08:59;13.90;99.90
15713;DHT22;7957;51.608;6.916;2022-10-16T10:11:42;13.80;99.90
15713;DHT22;7957;51.608;6.916;2022-10-16T10:14:19;13.90;99.90
15713;DHT22;7957;51.608;6.916;2022-10-16T10:16:48;13.90;99.90
15713;DHT22;7957;51.608;6.916;2022-10-16T10:19:17;13.90;99.90
15713;DHT22;7957;51.608;6.916;2022-10-16T10:21:45;13.90;99.90
15713;DHT22;7957;51.608;6.916;2022-10-16T10:24:13;13.90;99.90
15713;DHT22;7957;51.608;6.916;2022-10-16T10:26:47;14.20;99.90
15713;DHT22;7957;51.608;6.916;2022-10-16T10:29:24;14.20;99.90
15713;DHT22;7957;51.608;6.916;2022-10-16T10:31:59;14.10;99.90
15713;DHT22;7957;51.608;6.916;2022-10-16T10:34:45;14.10;99.90
15713;DHT22;7957;51.608;6.916;2022-10-16T10:37:27;14.10;99.90
15713;DHT22;7957;51.608;6.916;2022-10-16T10:40:05;14.10;99.90
15713;DHT22;7957;51.608;6.916;2022-10-16T10:42:37;14.10;99.90
15713;DHT22;7957;51.608;6.916;2022-10-16T10:45:26;14.10;99.90
15713;DHT22;7957;51.608;6.916;2022-10-16T10:48:05;14.10;99.90
15713;DHT22;7957;51.608;6.916;2022-10-16T10:50:41;14.10;99.90
15713;DHT22;7957;51.608;6.916;2022-10-16T10:53:28;14.20;99.90
15713;DHT22;7957;51.608;6.916;2022-10-16T10:56:09;14.20;99.90
15713;DHT22;7957;51.608;6.916;2022-10-16T11:01:50;14.30;99.90
15713;DHT22;7957;51.608;6.916;2022-10-16T11:04:45;14.30;99.90
15713;DHT22;7957;51.608;6.916;2022-10-16T11:07:19;14.40;99.90
15713;DHT22;7957;51.608;6.916;2022-10-16T11:09:49;14.40;99.90
15713;DHT22;7957;51.608;6.916;2022-10-16T11:12:21;14.40;99.90
15713;DHT22;7957;51.608;6.916;2022-10-16T11:14:54;14.40;99.90
15713;DHT22;7957;51.608;6.916;2022-10-16T11:17:26;14.50;99.90
15713;DHT22;7957;51.608;6.916;2022-10-16T11:20:00;14.50;99.90
15713;DHT22;7957;51.608;6.916;2022-10-16T11:22:32;14.50;99.90
15713;DHT22;7957;51.608;6.916;2022-10-16T11:25:04;14.60;99.90
15713;DHT22;7957;51.608;6.916;2022-10-16T11:27:38;14.70;99.90
15713;DHT22;7957;51.608;6.916;2022-10-16T11:30:14;14.80;99.90
15713;DHT22;7957;51.608;6.916;2022-10-16T11:32:52;14.80;99.90
15713;DHT22;7957;51.608;6.916;2022-10-16T11:35:27;14.90;99.90
15713;DHT22;7957;51.608;6.916;2022-10-16T11:37:58;15.00;99.90
15713;DHT22;7957;51.608;6.916;2022-10-16T11:40:30;15.10;99.90
15713;DHT22;7957;51.608;6.916;2022-10-16T11:43:04;15.30;99.90
15713;DHT22;7957;51.608;6.916;2022-10-16T11:45:38;15.30;99.90
15713;DHT22;7957;51.608;6.916;2022-10-16T11:48:15;15.40;99.90
15713;DHT22;7957;51.608;6.916;2022-10-16T11:50:51;15.50;99.90
15713;DHT22;7957;51.608;6.916;2022-10-16T11:53:29;15.50;99.90
15713;DHT22;7957;51.608;6.916;2022-10-16T11:55:58;15.60;99.90
15713;DHT22;7957;51.608;6.916;2022-10-16T11:58:28;15.70;99.90
15713;DHT22;7957;51.608;6.916;2022-10-16T12:01:05;15.80;99.90
15713;DHT22;7957;51.608;6.916;2022-10-16T12:03:41;16.00;99.90
15713;DHT22;7957;51.608;6.916;2022-10-16T12:06:22;16.00;99.90
15713;DHT22;7957;51.608;6.916;2022-10-16T12:08:53;16.20;99.90
15713;DHT22;7957;51.608;6.916;2022-10-16T12:11:33;16.30;99.90
15713;DHT22;7957;51.608;6.916;2022-10-16T12:14:18;16.40;76.20
15713;DHT22;7957;51.608;6.916;2022-10-16T12:16:54;16.60;1.00
15713;DHT22;7957;51.608;6.916;2022-10-16T12:19:22;16.70;1.00
15713;DHT22;7957;51.608;6.916;2022-10-16T12:21:54;16.80;1.00
15713;DHT22;7957;51.608;6.916;2022-10-16T12:24:30;16.90;1.00
15713;DHT22;7957;51.608;6.916;2022-10-16T12:26:58;16.90;99.90
15713;DHT22;7957;51.608;6.916;2022-10-16T12:29:32;16.90;1.00
15713;DHT22;7957;51.608;6.916;2022-10-16T12:32:00;16.90;1.00
15713;DHT22;7957;51.608;6.916;2022-10-16T12:34:29;16.90;1.00
15713;DHT22;7957;51.608;6.916;2022-10-16T12:37:11;16.80;99.90
15713;DHT22;7957;51.608;6.916;2022-10-16T12:39:39;16.80;99.90
15713;DHT22;7957;51.608;6.916;2022-10-16T12:42:21;16.80;99.90
15713;DHT22;7957;51.608;6.916;2022-10-16T12:44:48;16.70;99.90
15713;DHT22;7957;51.608;6.916;2022-10-16T12:47:21;16.70;99.90
15713;DHT22;7957;51.608;6.916;2022-10-16T12:49:50;16.70;99.90
15713;DHT22;7957;51.608;6.916;2022-10-16T12:52:27;16.70;1.00
15713;DHT22;7957;51.608;6.916;2022-10-16T12:54:56;16.60;1.00
15713;DHT22;7957;51.608;6.916;2022-10-16T12:57:36;16.60;1.00
15713;DHT22;7957;51.608;6.916;2022-10-16T13:00:13;16.60;1.00
15713;DHT22;7957;51.608;6.916;2022-10-16T13:02:59;16.60;1.00
15713;DHT22;7957;51.608;6.916;2022-10-16T13:05:35;16.50;1.00
15713;DHT22;7957;51.608;6.916;2022-10-16T13:08:20;16.40;99.90
15713;DHT22;7957;51.608;6.916;2022-10-16T13:10:57;16.40;99.90
15713;DHT22;7957;51.608;6.916;2022-10-16T13:13:56;16.40;99.90
15713;DHT22;7957;51.608;6.916;2022-10-16T13:16:35;16.40;99.90
15713;DHT22;7957;51.608;6.916;2022-10-16T13:19:16;16.30;99.90
15713;DHT22;7957;51.608;6.916;2022-10-16T13:21:51;16.30;99.90
15713;DHT22;7957;51.608;6.916;2022-10-16T13:24:41;16.30;99.90
15713;DHT22;7957;51.608;6.916;2022-10-16T13:27:12;16.30;99.90
15713;DHT22;7957;51.608;6.916;2022-10-16T13:29:42;16.30;1.00
15713;DHT22;7957;51.608;6.916;2022-10-16T13:32:10;16.30;1.00
15713;DHT22;7957;51.608;6.916;2022-10-16T13:34:44;16.30;1.00
15713;DHT22;7957;51.608;6.916;2022-10-16T13:37:17;16.30;99.90
15713;DHT22;7957;51.608;6.916;2022-10-16T13:39:46;16.30;99.90
15713;DHT22;7957;51.608;6.916;2022-10-16T13:42:21;16.30;99.90
15713;DHT22;7957;51.608;6.916;2022-10-16T13:44:51;16.30;1.00
15713;DHT22;7957;51.608;6.916;2022-10-16T13:47:19;16.20;1.00
15713;DHT22;7957;51.608;6.916;2022-10-16T13:49:48;16.10;1.00
15713;DHT22;7957;51.608;6.916;2022-10-16T13:52:25;16.10;1.00
15713;DHT22;7957;51.608;6.916;2022-10-16T13:54:53;16.00;1.00
15713;DHT22;7957;51.608;6.916;2022-10-16T13:57:23;16.00;1.00
15713;DHT22;7957;51.608;6.916;2022-10-16T13:59:50;16.00;51.50
15713;DHT22;7957;51.608;6.916;2022-10-16T14:02:21;15.90;99.90
15713;DHT22;7957;51.608;6.916;2022-10-16T14:04:49;15.90;99.90
15713;DHT22;7957;51.608;6.916;2022-10-16T14:07:22;16.00;99.90
15713;DHT22;7957;51.608;6.916;2022-10-16T14:09:52;16.00;99.90
15713;DHT22;7957;51.608;6.916;2022-10-16T14:12:20;16.00;99.90
15713;DHT22;7957;51.608;6.916;2022-10-16T14:14:50;16.10;99.90
15713;DHT22;7957;51.608;6.916;2022-10-16T14:17:21;16.10;99.90
15713;DHT22;7957;51.608;6.916;2022-10-16T14:19:51;16.10;99.90
15713;DHT22;7957;51.608;6.916;2022-10-16T14:22:28;16.20;99.90
15713;DHT22;7957;51.608;6.916;2022-10-16T14:24:58;16.20;99.90
15713;DHT22;7957;51.608;6.916;2022-10-16T14:27:31;16.10;99.90
15713;DHT22;7957;51.608;6.916;2022-10-16T14:30:17;16.10;99.90
15713;DHT22;7957;51.608;6.916;2022-10-16T14:32:54;16.00;99.90
15713;DHT22;7957;51.608;6.916;2022-10-16T14:35:39;16.00;99.90
15713;DHT22;7957;51.608;6.916;2022-10-16T14:38:18;16.00;99.90
15713;DHT22;7957;51.608;6.916;2022-10-16T14:40:49;15.90;99.90
15713;DHT22;7957;51.608;6.916;2022-10-16T14:43:21;15.90;99.90
15713;DHT22;7957;51.608;6.916;2022-10-16T14:45:52;16.00;1.00
15713;DHT22;7957;51.608;6.916;2022-10-16T14:48:20;15.90;1.00
15713;DHT22;7957;51.608;6.916;2022-10-16T14:50:47;16.00;1.00
15713;DHT22;7957;51.608;6.916;2022-10-16T14:53:14;16.00;1.00
15713;DHT22;7957;51.608;6.916;2022-10-16T14:55:42;16.00;1.00
15713;DHT22;7957;51.608;6.916;2022-10-16T14:58:14;16.00;1.00
15713;DHT22;7957;51.608;6.916;2022-10-16T15:00:41;16.00;1.00
15713;DHT22;7957;51.608;6.916;2022-10-16T15:03:08;16.00;1.00
15713;DHT22;7957;51.608;6.916;2022-10-16T15:05:36;16.00;1.00
15713;DHT22;7957;51.608;6.916;2022-10-16T15:08:03;16.00;1.00
15713;DHT22;7957;51.608;6.916;2022-10-16T15:10:31;16.00;1.00
15713;DHT22;7957;51.608;6.916;2022-10-16T15:12:59;15.90;1.00
15713;DHT22;7957;51.608;6.916;2022-10-16T15:15:34;15.90;1.00
15713;DHT22;7957;51.608;6.916;2022-10-16T15:18:02;16.00;1.00
15713;DHT22;7957;51.608;6.916;2022-10-16T15:20:30;15.90;1.00
15713;DHT22;7957;51.608;6.916;2022-10-16T15:22:59;15.90;24.80
15713;DHT22;7957;51.608;6.916;2022-10-16T15:25:34;15.90;94.80
15713;DHT22;7957;51.608;6.916;2022-10-16T15:28:02;15.80;99.90
15713;DHT22;7957;51.608;6.916;2022-10-16T15:30:29;15.80;99.90
15713;DHT22;7957;51.608;6.916;2022-10-16T15:32:58;15.80;99.90
15713;DHT22;7957;51.608;6.916;2022-10-16T15:35:25;15.80;99.90
15713;DHT22;7957;51.608;6.916;2022-10-16T15:37:52;15.80;99.90
15713;DHT22;7957;51.608;6.916;2022-10-16T15:40:20;15.80;1.00
15713;DHT22;7957;51.608;6.916;2022-10-16T15:42:48;15.80;1.00
15713;DHT22;7957;51.608;6.916;2022-10-16T15:45:15;15.80;1.00
15713;DHT22;7957;51.608;6.916;2022-10-16T15:47:43;15.70;1.00
15713;DHT22;7957;51.608;6.916;2022-10-16T15:50:13;15.70;1.00
15713;DHT22;7957;51.608;6.916;2022-10-16T15:52:41;15.70;1.00
15713;DHT22;7957;51.608;6.916;2022-10-16T15:55:08;15.70;1.00
15713;DHT22;7957;51.608;6.916;2022-10-16T15:57:36;15.70;1.00
15713;DHT22;7957;51.608;6.916;2022-10-16T16:00:07;15.70;1.00
15713;DHT22;7957;51.608;6.916;2022-10-16T16:02:34;15.60;1.00
15713;DHT22;7957;51.608;6.916;2022-10-16T16:05:01;15.60;1.00
15713;DHT22;7957;51.608;6.916;2022-10-16T16:07:32;15.60;27.50
15713;DHT22;7957;51.608;6.916;2022-10-16T16:09:59;15.50;91.40
15713;DHT22;7957;51.608;6.916;2022-10-16T16:12:26;15.50;99.90